Time;durP1;ratioP1;P1;durP2;ratioP2;P2;SDS_P1;SDS_P2;PMS_P1;PMS_P2;Temp;Humidity;BMP_temperature;BMP_pressure;BME280_temperature;BME280_humidity;BME280_pressure;Samples;Min_cycle;Max_cycle;Signal;HPM_P1;HPM_P2
2023/09/26 12:15:19;;;;;;;6.40;3.20;;;21.90;99.90;;;;;;1883493;75;21117;-80
2023/09/26 12:18:10;;;;;;;4.33;2.83;;;22.00;99.90;;;;;;1872166;76;21122;-80
2023/09/26 12:21:04;;;;;;;4.45;2.85;;;22.00;99.90;;;;;;1876177;76;21105;-79
2023/09/26 12:23:56;;;;;;;4.12;3.02;;;22.10;99.90;;;;;;1892879;76;21581;-79
2023/09/26 12:26:47;;;;;;;5.17;2.67;;;22.20;99.90;;;;;;1892716;76;21341;-80
2023/09/26 12:29:39;;;;;;;4.35;2.60;;;22.30;99.90;;;;;;1892721;76;21135;-80
2023/09/26 12:32:32;;;;;;;4.37;2.85;;;22.30;99.90;;;;;;1864875;76;21101;-79
2023/09/26 12:35:24;;;;;;;10.08;2.98;;;22.30;99.90;;;;;;1911596;75;21121;-79
2023/09/26 12:40:58;;;;;;;5.78;2.87;;;22.50;99.90;;;;;;1975440;72;22488;-81
2023/09/26 12:43:49;;;;;;;5.20;2.85;;;22.60;99.90;;;;;;1950486;73;21138;-79
2023/09/26 12:46:41;;;;;;;6.65;3.05;;;22.60;99.90;;;;;;1950444;73;21531;-79
2023/09/26 12:49:33;;;;;;;4.05;2.90;;;22.70;99.90;;;;;;1942871;73;21135;-79
2023/09/26 12:52:27;;;;;;;5.55;3.22;;;22.80;99.90;;;;;;1916488;75;21156;-79
2023/09/26 12:55:19;;;;;;;3.95;2.67;;;22.90;99.90;;;;;;1916401;75;21249;-79
2023/09/26 12:58:11;;;;;;;4.70;3.08;;;22.90;99.90;;;;;;1916793;75;21055;-78
2023/09/26 13:01:02;;;;;;;5.17;2.87;;;23.10;99.90;;;;;;1916723;75;21110;-78
2023/09/26 13:03:54;;;;;;;5.35;2.95;;;23.10;99.90;;;;;;1916772;75;21184;-79
2023/09/26 13:06:46;;;;;;;6.20;3.10;;;23.20;99.90;;;;;;1916554;75;21067;-78
2023/09/26 13:09:37;;;;;;;3.55;2.72;;;23.20;99.90;;;;;;1916704;75;21097;-79
2023/09/26 13:12:29;;;;;;;4.62;3.10;;;23.30;99.90;;;;;;1916604;75;21098;-78
2023/09/26 13:15:22;;;;;;;4.55;2.77;;;23.40;99.90;;;;;;1916474;75;21155;-78
2023/09/26 13:18:13;;;;;;;5.15;2.70;;;23.50;99.90;;;;;;1916645;75;21120;-78
2023/09/26 13:21:05;;;;;;;6.00;3.22;;;23.50;99.90;;;;;;1916653;75;21088;-78
2023/09/26 13:23:57;;;;;;;4.80;2.80;;;23.60;99.90;;;;;;1916274;75;21213;-78
2023/09/26 13:26:48;;;;;;;3.80;2.87;;;23.70;99.90;;;;;;1916505;75;21336;-79
2023/09/26 13:29:40;;;;;;;4.55;3.27;;;23.80;99.90;;;;;;1916188;75;21172;-79
2023/09/26 13:32:32;;;;;;;3.75;2.58;;;23.80;99.90;;;;;;1917089;75;21171;-79
2023/09/26 13:35:27;;;;;;;5.17;2.80;;;23.90;99.90;;;;;;1916780;75;21087;-79
2023/09/26 13:38:17;;;;;;;5.92;2.70;;;24.00;99.90;;;;;;1916748;75;21126;-79
2023/09/26 13:41:08;;;;;;;7.72;3.20;;;24.00;99.90;;;;;;1927864;74;21354;-78
2023/09/26 13:44:00;;;;;;;7.53;2.75;;;24.10;99.90;;;;;;1932576;74;21239;-78
2023/09/26 13:46:53;;;;;;;3.58;2.50;;;24.10;99.90;;;;;;1932939;74;21166;-78
2023/09/26 13:49:45;;;;;;;4.08;2.75;;;24.10;99.90;;;;;;1932860;74;21054;-78
2023/09/26 13:52:36;;;;;;;4.42;3.12;;;24.20;99.90;;;;;;1932109;74;21164;-78
2023/09/26 13:55:28;;;;;;;3.80;2.75;;;24.30;99.90;;;;;;1932421;74;21067;-78
2023/09/26 13:58:19;;;;;;;3.40;2.55;;;24.40;99.90;;;;;;1932187;74;21120;-78
2023/09/26 14:01:14;;;;;;;6.33;3.22;;;24.60;99.90;;;;;;1931921;74;21498;-79
2023/09/26 14:04:07;;;;;;;4.60;2.90;;;24.90;99.90;;;;;;1931771;74;21063;-79
2023/09/26 14:07:00;;;;;;;5.92;2.60;;;25.10;99.90;;;;;;1931886;74;21526;-78
2023/09/26 14:09:52;;;;;;;7.03;2.70;;;25.60;99.90;;;;;;1932169;74;21098;-79
2023/09/26 14:12:44;;;;;;;3.98;3.02;;;27.60;99.90;;;;;;1932134;74;21180;-79
2023/09/26 14:15:36;;;;;;;6.55;2.98;;;28.70;99.90;;;;;;1931882;74;21065;-80
2023/09/26 14:18:27;;;;;;;5.22;2.85;;;29.90;99.90;;;;;;1932380;74;21852;-80
2023/09/26 14:21:19;;;;;;;3.62;2.87;;;30.70;99.90;;;;;;1931906;74;21105;-80
2023/09/26 14:24:11;;;;;;;3.98;3.05;;;31.50;98.70;;;;;;1931993;74;21526;-81
2023/09/26 14:27:03;;;;;;;6.10;3.05;;;32.20;97.00;;;;;;1932017;74;21139;-80
2023/09/26 14:30:01;;;;;;;6.78;3.70;;;33.00;94.50;;;;;;1932312;74;21105;-79
2023/09/26 14:32:48;;;;;;;4.80;3.00;;;33.00;91.60;;;;;;1932110;74;21590;-79
2023/09/26 14:35:43;;;;;;;4.47;3.08;;;33.40;90.30;;;;;;1932025;74;21588;-79
2023/09/26 14:38:35;;;;;;;4.55;2.95;;;34.00;86.60;;;;;;1932129;74;21047;-79
2023/09/26 14:41:26;;;;;;;4.83;3.22;;;33.30;82.80;;;;;;1925092;74;21598;-80
2023/09/26 14:44:23;;;;;;;5.22;3.00;;;32.90;82.40;;;;;;1915664;75;21106;-79
2023/09/26 14:47:17;;;;;;;3.80;2.92;;;33.30;81.10;;;;;;1915939;75;21125;-79
2023/09/26 14:50:14;;;;;;;4.53;2.90;;;33.70;76.70;;;;;;1915468;75;21055;-79
2023/09/26 14:53:27;;;;;;;3.45;2.60;;;33.10;76.40;;;;;;1915561;75;21530;-79
2023/09/26 14:56:25;;;;;;;3.98;2.02;;;33.10;74.90;;;;;;1903971;75;21157;-80
2023/09/26 14:59:21;;;;;;;2.20;1.65;;;32.60;70.10;;;;;;1903855;75;21091;-79
2023/09/26 15:02:15;;;;;;;3.15;2.27;;;32.90;69.20;;;;;;1903714;75;21107;-79
2023/09/26 15:05:10;;;;;;;2.58;1.80;;;33.00;67.80;;;;;;1896827;75;21047;-80
2023/09/26 15:08:05;;;;;;;4.92;1.95;;;32.90;66.90;;;;;;1915920;75;21164;-80
2023/09/26 15:10:57;;;;;;;3.58;1.90;;;32.20;67.90;;;;;;1915814;75;21176;-79
2023/09/26 15:13:55;;;;;;;2.90;2.02;;;32.50;67.70;;;;;;1915792;75;21055;-80
2023/09/26 15:16:48;;;;;;;3.50;1.85;;;33.10;67.30;;;;;;1915950;75;21122;-79
2023/09/26 15:19:44;;;;;;;4.22;1.90;;;33.30;64.90;;;;;;1915809;75;21059;-80
2023/09/26 15:22:39;;;;;;;2.70;1.65;;;32.70;64.00;;;;;;1915449;75;21051;-81
2023/09/26 15:25:31;;;;;;;2.70;1.80;;;32.40;65.00;;;;;;1903338;75;21064;-80
2023/09/26 15:28:25;;;;;;;2.55;1.70;;;32.90;65.30;;;;;;1903487;75;21636;-80
2023/09/26 15:31:21;;;;;;;5.70;3.60;;;34.30;65.40;;;;;;1903348;75;21123;-79
2023/09/26 15:34:31;;;;;;;3.80;3.33;;;35.60;65.40;;;;;;1903737;75;21157;-81
2023/09/26 15:37:23;;;;;;;5.80;3.05;;;36.00;63.80;;;;;;1916238;75;21172;-80
2023/09/26 15:40:16;;;;;;;4.30;3.20;;;36.10;63.70;;;;;;1916112;75;21552;-80
2023/09/26 15:43:10;;;;;;;5.50;3.37;;;36.60;63.20;;;;;;1927966;74;21578;-80
2023/09/26 15:46:02;;;;;;;8.15;3.92;;;37.00;62.30;;;;;;1932053;74;21512;-79
2023/09/26 15:48:59;;;;;;;5.00;3.85;;;36.90;61.90;;;;;;1932041;74;21208;-79
2023/09/26 15:51:54;;;;;;;5.92;3.67;;;36.80;62.70;;;;;;1941344;74;21110;-80
2023/09/26 15:54:51;;;;;;;5.72;3.67;;;35.80;62.90;;;;;;1944300;74;21124;-80
2023/09/26 15:57:50;;;;;;;5.60;3.70;;;36.00;63.60;;;;;;1944479;74;21487;-79
2023/09/26 16:00:45;;;;;;;4.33;3.30;;;36.70;62.60;;;;;;1918750;74;21579;-79
2023/09/26 16:03:38;;;;;;;9.55;3.40;;;36.60;61.00;;;;;;1944049;74;21658;-80
2023/09/26 16:06:32;;;;;;;4.83;3.22;;;36.20;60.80;;;;;;1944570;74;21204;-79
2023/09/26 16:09:25;;;;;;;4.08;3.08;;;36.20;59.90;;;;;;1944347;74;21051;-80
2023/09/26 16:12:21;;;;;;;4.20;3.10;;;36.10;60.00;;;;;;1944532;74;21114;-80
2023/09/26 16:15:15;;;;;;;4.55;3.27;;;35.70;60.90;;;;;;1944169;74;21122;-80
2023/09/26 16:20:51;;;;;;;5.85;3.65;;;34.60;62.70;;;;;;1957198;72;22225;-79
2023/09/26 16:23:43;;;;;;;5.40;3.72;;;33.60;64.50;;;;;;1916454;75;21188;-80
2023/09/26 16:26:37;;;;;;;6.08;3.92;;;32.50;66.60;;;;;;1916304;75;21161;-80
2023/09/26 16:29:29;;;;;;;6.33;3.65;;;31.30;68.80;;;;;;1916470;75;21090;-80
2023/09/26 16:32:20;;;;;;;4.92;3.22;;;30.30;71.90;;;;;;1916559;75;21176;-80
2023/09/26 16:35:12;;;;;;;4.65;3.37;;;29.50;72.70;;;;;;1916549;75;21165;-79
2023/09/26 16:38:06;;;;;;;9.03;3.67;;;28.70;74.00;;;;;;1916353;75;21107;-79
2023/09/26 16:40:58;;;;;;;7.37;3.25;;;28.20;76.20;;;;;;1916535;75;21086;-79
2023/09/26 16:43:51;;;;;;;6.35;3.77;;;27.60;78.20;;;;;;1916567;75;21126;-78
2023/09/26 16:46:43;;;;;;;4.78;3.72;;;27.10;79.30;;;;;;1916797;75;21172;-79
2023/09/26 16:49:34;;;;;;;9.60;4.17;;;26.50;81.50;;;;;;1916784;75;21144;-79
2023/09/26 16:52:26;;;;;;;5.58;3.50;;;26.10;83.10;;;;;;1916568;75;21471;-79
2023/09/26 16:55:18;;;;;;;6.50;3.52;;;25.80;84.80;;;;;;1916620;75;21203;-79
2023/09/26 16:58:10;;;;;;;5.10;3.45;;;25.50;85.60;;;;;;1916521;75;21177;-79
2023/09/26 17:01:11;;;;;;;3.67;2.62;;;25.10;88.30;;;;;;1916876;75;21087;-79
2023/09/26 17:04:04;;;;;;;7.28;3.02;;;24.70;87.00;;;;;;1916664;75;21144;-79
2023/09/26 17:06:56;;;;;;;6.08;3.15;;;24.60;89.10;;;;;;1916859;75;21115;-79
2023/09/26 17:09:49;;;;;;;5.28;3.40;;;24.20;90.10;;;;;;1917148;75;21649;-79
2023/09/26 17:12:40;;;;;;;7.17;3.85;;;23.90;91.10;;;;;;1916917;75;21051;-79
2023/09/26 17:15:32;;;;;;;5.92;3.40;;;23.60;93.00;;;;;;1916650;75;21067;-79
2023/09/26 17:18:23;;;;;;;4.67;2.95;;;23.30;95.00;;;;;;1916795;75;21148;-78
2023/09/26 17:21:15;;;;;;;5.15;3.05;;;22.80;97.00;;;;;;1929609;74;21133;-78
2023/09/26 17:24:08;;;;;;;4.97;2.60;;;22.60;99.20;;;;;;1899565;75;21162;-78
2023/09/26 17:26:59;;;;;;;4.33;3.08;;;22.30;99.90;;;;;;1899171;75;21108;-79
2023/09/26 17:29:51;;;;;;;6.55;3.20;;;22.30;99.90;;;;;;1899909;75;21097;-78
2023/09/26 17:32:43;;;;;;;5.72;3.33;;;22.10;99.90;;;;;;1899680;75;21101;-78
2023/09/26 17:35:36;;;;;;;5.03;3.25;;;22.10;99.90;;;;;;1899237;75;21203;-78
2023/09/26 17:38:28;;;;;;;5.60;3.25;;;22.00;99.90;;;;;;1899422;75;21573;-78
2023/09/26 17:41:19;;;;;;;4.70;3.08;;;21.70;99.90;;;;;;1899209;75;21121;-78
2023/09/26 17:44:11;;;;;;;5.60;2.87;;;21.40;99.90;;;;;;1899196;75;21128;-79
2023/09/26 17:47:03;;;;;;;4.42;3.22;;;21.30;99.90;;;;;;1899112;75;21129;-78
2023/09/26 17:49:54;;;;;;;5.92;3.00;;;21.10;99.90;;;;;;1899038;75;21117;-78
2023/09/26 17:52:46;;;;;;;7.72;3.50;;;21.00;99.90;;;;;;1899048;75;21136;-78
2023/09/26 17:55:37;;;;;;;5.47;3.30;;;21.00;99.90;;;;;;1898844;75;21138;-78
2023/09/26 17:58:29;;;;;;;6.58;3.50;;;20.90;99.90;;;;;;1899347;75;21167;-78
2023/09/26 18:01:20;;;;;;;5.50;3.62;;;21.00;99.90;;;;;;1899121;75;21634;-78
2023/09/26 18:04:11;;;;;;;4.53;3.47;;;21.00;99.90;;;;;;1899216;75;21212;-78
2023/09/26 18:07:03;;;;;;;5.75;3.60;;;21.00;99.90;;;;;;1899118;75;21659;-78
2023/09/26 18:09:54;;;;;;;6.65;3.92;;;21.00;99.90;;;;;;1898901;75;21097;-78
2023/09/26 18:12:46;;;;;;;5.70;3.60;;;21.00;99.90;;;;;;1899441;75;21157;-78
2023/09/26 18:15:37;;;;;;;5.47;3.50;;;20.90;99.90;;;;;;1899254;75;21421;-78
2023/09/26 18:18:29;;;;;;;6.85;3.37;;;20.70;99.90;;;;;;1899346;75;21156;-79
2023/09/26 18:21:20;;;;;;;4.97;3.37;;;20.60;99.90;;;;;;1899156;75;21128;-78
2023/09/26 18:24:15;;;;;;;4.60;3.40;;;20.40;99.90;;;;;;1899406;75;21062;-78
2023/09/26 18:27:10;;;;;;;6.70;3.27;;;20.30;99.90;;;;;;1899341;75;21106;-78
2023/09/26 18:30:03;;;;;;;5.83;3.30;;;20.20;99.90;;;;;;1899183;75;21342;-78
2023/09/26 18:33:00;;;;;;;6.53;3.65;;;20.00;99.90;;;;;;1885082;75;21061;-78
2023/09/26 18:36:00;;;;;;;6.17;3.47;;;19.90;99.90;;;;;;1899202;75;21110;-78
2023/09/26 18:39:12;;;;;;;6.87;3.37;;;19.70;99.90;;;;;;1884385;75;21126;-78
2023/09/26 18:42:06;;;;;;;6.87;4.00;;;19.70;99.90;;;;;;1884629;75;21158;-78
2023/09/26 18:45:02;;;;;;;7.37;3.62;;;19.60;99.90;;;;;;1899264;75;21158;-78
2023/09/26 18:48:00;;;;;;;4.55;3.50;;;19.70;99.90;;;;;;1899375;75;21065;-78
2023/09/26 18:51:02;;;;;;;7.65;3.55;;;19.70;99.90;;;;;;1899402;75;21075;-78
2023/09/26 18:53:57;;;;;;;8.43;3.42;;;19.70;99.90;;;;;;1899728;75;21098;-78
2023/09/26 18:56:55;;;;;;;7.45;3.70;;;19.60;99.90;;;;;;1899582;75;21168;-78
2023/09/26 18:59:51;;;;;;;6.47;3.77;;;19.60;99.90;;;;;;1899573;75;21629;-78
2023/09/26 19:02:46;;;;;;;7.05;4.45;;;19.40;99.90;;;;;;1899477;75;21109;-78
2023/09/26 19:05:40;;;;;;;6.78;4.28;;;19.40;99.90;;;;;;1899285;75;21105;-79
2023/09/26 19:08:36;;;;;;;6.58;3.92;;;19.40;99.90;;;;;;1898950;75;21102;-78
2023/09/26 19:11:33;;;;;;;7.83;4.25;;;19.40;99.90;;;;;;1899224;75;21147;-78
2023/09/26 19:14:28;;;;;;;4.50;3.40;;;19.40;99.90;;;;;;1899440;75;21117;-78
2023/09/26 19:17:25;;;;;;;8.93;3.55;;;19.40;99.90;;;;;;1899377;75;21159;-78
2023/09/26 19:20:20;;;;;;;4.62;3.33;;;19.40;99.90;;;;;;1899475;75;21069;-78
2023/09/26 19:23:17;;;;;;;6.25;3.20;;;19.40;99.90;;;;;;1880254;76;21109;-78
2023/09/26 19:26:09;;;;;;;7.22;3.60;;;19.40;99.90;;;;;;1883689;76;21212;-78
2023/09/26 19:29:26;;;;;;;7.08;3.52;;;19.40;99.90;;;;;;1883313;76;21168;-78
2023/09/26 19:32:20;;;;;;;9.90;4.20;;;19.40;99.90;;;;;;1883354;76;21106;-79
2023/09/26 19:35:15;;;;;;;6.85;4.00;;;19.30;99.90;;;;;;1883585;76;21114;-78
2023/09/26 19:38:09;;;;;;;6.83;3.70;;;19.10;99.90;;;;;;1883527;76;21589;-78
2023/09/26 19:41:01;;;;;;;5.97;3.75;;;19.10;99.90;;;;;;1883332;76;21054;-78
2023/09/26 19:43:54;;;;;;;8.25;3.98;;;19.00;99.90;;;;;;1882807;76;21184;-78
2023/09/26 19:46:48;;;;;;;4.25;3.10;;;19.00;99.90;;;;;;1883214;76;21078;-78
2023/09/26 19:49:41;;;;;;;6.92;3.08;;;19.00;99.90;;;;;;1883532;76;21575;-78
2023/09/26 19:52:36;;;;;;;5.78;3.60;;;19.00;99.90;;;;;;1883543;76;21160;-78
2023/09/26 19:55:30;;;;;;;5.42;3.12;;;19.00;99.90;;;;;;1883482;76;21114;-78
2023/09/26 19:58:25;;;;;;;5.67;3.30;;;18.90;99.90;;;;;;1883525;76;21262;-78
2023/09/26 20:01:26;;;;;;;4.30;3.02;;;18.90;99.90;;;;;;1883229;76;21163;-79
2023/09/26 20:04:20;;;;;;;4.42;2.87;;;18.80;99.90;;;;;;1883516;76;21114;-78
2023/09/26 20:07:11;;;;;;;4.90;3.10;;;18.90;99.90;;;;;;1883518;76;21098;-78
2023/09/26 20:10:03;;;;;;;5.17;3.52;;;18.80;99.90;;;;;;1883450;76;21094;-78
2023/09/26 20:12:55;;;;;;;4.80;3.20;;;18.70;99.90;;;;;;1883303;76;21122;-78
2023/09/26 20:15:46;;;;;;;6.45;2.98;;;18.70;99.90;;;;;;1883259;76;21060;-78
2023/09/26 20:18:38;;;;;;;3.98;2.90;;;18.60;99.90;;;;;;1883210;76;21195;-78
2023/09/26 20:21:31;;;;;;;4.28;3.00;;;18.60;99.90;;;;;;1883580;75;21177;-78
2023/09/26 20:24:22;;;;;;;5.92;3.55;;;18.50;99.90;;;;;;1914166;74;21216;-78
2023/09/26 20:27:14;;;;;;;6.45;3.47;;;18.40;99.90;;;;;;1914484;75;21176;-78
2023/09/26 20:30:07;;;;;;;5.87;3.20;;;18.40;99.90;;;;;;1914228;75;21180;-78
2023/09/26 20:32:58;;;;;;;6.87;3.58;;;18.40;99.90;;;;;;1914340;75;21787;-78
2023/09/26 20:35:58;;;;;;;5.65;3.83;;;18.30;99.90;;;;;;1913697;75;21630;-78
2023/09/26 20:38:49;;;;;;;6.72;3.80;;;18.20;99.90;;;;;;1914054;75;21103;-78
2023/09/26 20:41:40;;;;;;;8.28;3.50;;;18.20;99.90;;;;;;1914134;75;21204;-78
2023/09/26 20:44:32;;;;;;;6.60;4.00;;;18.20;99.90;;;;;;1914296;75;21136;-78
2023/09/26 20:47:23;;;;;;;8.50;3.65;;;18.10;99.90;;;;;;1914344;75;21221;-78
2023/09/26 20:50:15;;;;;;;8.15;3.52;;;18.10;99.90;;;;;;1914415;75;21167;-78
2023/09/26 20:53:08;;;;;;;7.28;3.75;;;18.10;99.90;;;;;;1914481;75;21172;-78
2023/09/26 20:56:03;;;;;;;7.10;3.87;;;18.10;99.90;;;;;;1914359;75;21130;-78
2023/09/26 20:58:55;;;;;;;6.62;3.77;;;18.10;99.90;;;;;;1913973;75;21617;-79
2023/09/26 21:01:47;;;;;;;6.40;3.92;;;18.10;99.90;;;;;;1914038;75;21106;-78
2023/09/26 21:04:39;;;;;;;5.60;3.37;;;18.10;99.90;;;;;;1914280;75;21130;-78
2023/09/26 21:07:30;;;;;;;6.35;3.60;;;18.10;99.90;;;;;;1914522;75;21133;-78
2023/09/26 21:10:22;;;;;;;4.60;3.12;;;18.10;99.90;;;;;;1914424;75;21066;-78
2023/09/26 21:13:13;;;;;;;5.20;3.30;;;18.10;99.90;;;;;;1914635;75;21110;-79
2023/09/26 21:16:12;;;;;;;7.72;3.90;;;18.10;99.90;;;;;;1914699;75;21171;-78
2023/09/26 21:19:03;;;;;;;6.03;2.83;;;18.10;99.90;;;;;;1914538;75;21601;-78
2023/09/26 21:21:55;;;;;;;5.95;3.20;;;18.10;99.90;;;;;;1908327;75;21141;-77
2023/09/26 21:24:46;;;;;;;5.35;2.85;;;18.00;99.90;;;;;;1889710;75;21150;-78
2023/09/26 21:27:37;;;;;;;4.12;3.22;;;17.90;99.90;;;;;;1892833;76;21185;-78
2023/09/26 21:30:29;;;;;;;6.15;3.15;;;17.80;99.90;;;;;;1892742;76;21108;-78
2023/09/26 21:33:20;;;;;;;5.67;3.17;;;17.70;99.90;;;;;;1892696;76;21096;-80
2023/09/26 21:36:13;;;;;;;8.40;3.37;;;17.70;99.90;;;;;;1892582;76;21182;-78
2023/09/26 21:39:05;;;;;;;4.15;3.00;;;17.60;99.90;;;;;;1892649;76;21181;-78
2023/09/26 21:41:56;;;;;;;6.00;3.60;;;17.60;99.90;;;;;;1892292;76;21134;-78
2023/09/26 21:44:47;;;;;;;6.95;3.35;;;17.60;99.90;;;;;;1892802;76;21594;-78
2023/09/26 21:47:39;;;;;;;6.33;3.55;;;17.60;99.90;;;;;;1893023;76;21173;-78
2023/09/26 21:50:31;;;;;;;7.87;3.60;;;17.60;99.90;;;;;;1892879;76;21136;-78
2023/09/26 21:53:22;;;;;;;4.45;3.22;;;17.60;99.90;;;;;;1892980;76;21076;-78
2023/09/26 21:56:14;;;;;;;4.50;2.95;;;17.50;99.90;;;;;;1893108;76;21192;-78
2023/09/26 21:59:06;;;;;;;7.65;3.05;;;17.50;99.90;;;;;;1892820;76;21123;-78
2023/09/26 22:01:57;;;;;;;6.62;3.02;;;17.40;99.90;;;;;;1892825;76;21118;-78
2023/09/26 22:04:48;;;;;;;6.35;3.65;;;17.40;99.90;;;;;;1892767;76;21474;-78
2023/09/26 22:07:40;;;;;;;5.03;3.20;;;17.30;99.90;;;;;;1892861;76;21652;-78
2023/09/26 22:10:33;;;;;;;6.47;3.12;;;17.30;99.90;;;;;;1892766;76;21136;-78
2023/09/26 22:13:26;;;;;;;5.05;3.58;;;17.30;99.90;;;;;;1892447;76;21119;-78
2023/09/26 22:16:18;;;;;;;5.28;3.45;;;17.30;99.90;;;;;;1892684;76;21397;-78
2023/09/26 22:19:10;;;;;;;7.90;3.30;;;17.30;99.90;;;;;;1892798;76;21088;-78
2023/09/26 22:22:03;;;;;;;5.95;3.02;;;17.40;99.90;;;;;;1892805;76;21060;-78
2023/09/26 22:24:54;;;;;;;5.12;2.90;;;17.40;99.90;;;;;;1889914;75;21143;-78
2023/09/26 22:27:45;;;;;;;5.25;3.30;;;17.40;99.90;;;;;;1871628;77;21170;-78
2023/09/26 22:30:37;;;;;;;5.55;3.12;;;17.40;99.90;;;;;;1883650;76;21174;-78
2023/09/26 22:33:29;;;;;;;5.80;3.20;;;17.30;99.90;;;;;;1871751;77;21130;-78
2023/09/26 22:36:21;;;;;;;4.75;2.90;;;17.30;99.90;;;;;;1871870;77;21149;-78
2023/09/26 22:39:13;;;;;;;4.90;2.87;;;17.20;99.90;;;;;;1883812;76;21088;-78
2023/09/26 22:42:05;;;;;;;10.30;3.58;;;17.10;99.90;;;;;;1871822;77;21157;-78
2023/09/26 22:44:56;;;;;;;6.08;3.37;;;17.10;99.90;;;;;;1883513;76;21144;-78
2023/09/26 22:47:49;;;;;;;4.22;2.90;;;17.10;99.90;;;;;;1883555;76;21150;-78
2023/09/26 22:50:41;;;;;;;5.95;3.00;;;17.10;99.90;;;;;;1871395;77;21141;-78
2023/09/26 22:53:33;;;;;;;5.10;2.92;;;17.10;99.90;;;;;;1883339;76;21133;-78
2023/09/26 22:56:25;;;;;;;4.95;2.83;;;17.20;99.90;;;;;;1871534;77;21109;-78
2023/09/26 22:59:16;;;;;;;5.45;3.17;;;17.20;99.90;;;;;;1871451;77;21049;-78
2023/09/26 23:02:08;;;;;;;6.12;3.42;;;17.20;99.90;;;;;;1871392;77;21089;-78
2023/09/26 23:05:00;;;;;;;6.15;2.95;;;17.20;99.90;;;;;;1871263;77;21107;-78
2023/09/26 23:07:52;;;;;;;9.55;3.00;;;17.20;99.90;;;;;;1883336;76;21181;-78
2023/09/26 23:10:43;;;;;;;5.40;2.60;;;17.20;99.90;;;;;;1871527;77;21528;-78
2023/09/26 23:13:35;;;;;;;4.60;3.27;;;17.20;99.90;;;;;;1883369;76;21111;-78
2023/09/26 23:16:27;;;;;;;5.15;2.70;;;17.10;99.90;;;;;;1883627;76;21073;-78
2023/09/26 23:19:18;;;;;;;3.98;2.80;;;17.10;99.90;;;;;;1871778;77;21707;-78
2023/09/26 23:22:10;;;;;;;5.25;2.80;;;17.00;99.90;;;;;;1883753;76;21166;-78
2023/09/26 23:25:10;;;;;;;4.65;3.10;;;17.00;99.90;;;;;;1871773;77;21112;-78
2023/09/26 23:28:03;;;;;;;6.42;2.70;;;17.00;99.90;;;;;;1892346;76;21060;-78
2023/09/26 23:30:55;;;;;;;5.53;2.70;;;17.00;99.90;;;;;;1892254;76;21119;-78
2023/09/26 23:33:47;;;;;;;4.37;2.85;;;16.90;99.90;;;;;;1892469;76;21060;-78
2023/09/26 23:36:38;;;;;;;4.75;2.80;;;16.90;99.90;;;;;;1892490;76;21181;-78
2023/09/26 23:39:29;;;;;;;5.62;2.92;;;16.90;99.90;;;;;;1892588;76;21151;-78
2023/09/26 23:42:21;;;;;;;4.55;2.55;;;16.80;99.90;;;;;;1892500;76;21194;-79
2023/09/26 23:45:13;;;;;;;5.05;2.70;;;16.90;99.90;;;;;;1892215;76;21099;-79
2023/09/26 23:48:08;;;;;;;5.80;2.80;;;16.80;99.90;;;;;;1892263;76;21593;-78
2023/09/26 23:50:59;;;;;;;5.67;2.75;;;16.80;99.90;;;;;;1892555;76;21119;-79
2023/09/26 23:53:50;;;;;;;5.83;2.75;;;16.80;99.90;;;;;;1892472;76;21701;-79
2023/09/26 23:56:42;;;;;;;5.05;2.77;;;16.70;99.90;;;;;;1892611;76;21065;-78
2023/09/26 23:59:34;;;;;;;6.37;3.05;;;16.70;99.90;;;;;;1892394;76;21543;-78
